sensor_id;sensor_type;location;lat;lon;timestamp;P1;durP1;ratioP1;P2;durP2;ratioP2
42876;SDS011;42341;40.498;72.818;2023-02-01T00:01:29;30.65;;;13.57;;
42876;SDS011;42341;40.498;72.818;2023-02-01T00:03:55;28.25;;;14.65;;
42876;SDS011;42341;40.498;72.818;2023-02-01T00:06:20;23.13;;;12.32;;
42876;SDS011;42341;40.498;72.818;2023-02-01T00:08:46;23.33;;;12.73;;
42876;SDS011;42341;40.498;72.818;2023-02-01T00:11:12;23.77;;;12.27;;
42876;SDS011;42341;40.498;72.818;2023-02-01T00:13:39;28.35;;;14.48;;
42876;SDS011;42341;40.498;72.818;2023-02-01T00:16:13;45.85;;;21.70;;
42876;SDS011;42341;40.498;72.818;2023-02-01T00:18:43;31.50;;;14.45;;
42876;SDS011;42341;40.498;72.818;2023-02-01T00:23:40;94.75;;;45.60;;
42876;SDS011;42341;40.498;72.818;2023-02-01T00:26:07;50.50;;;27.35;;
42876;SDS011;42341;40.498;72.818;2023-02-01T00:28:38;44.85;;;19.65;;
42876;SDS011;42341;40.498;72.818;2023-02-01T00:31:04;40.53;;;19.63;;
42876;SDS011;42341;40.498;72.818;2023-02-01T00:33:31;42.97;;;18.63;;
42876;SDS011;42341;40.498;72.818;2023-02-01T00:35:58;32.95;;;16.15;;
42876;SDS011;42341;40.498;72.818;2023-02-01T00:38:28;36.03;;;15.48;;
42876;SDS011;42341;40.498;72.818;2023-02-01T00:41:01;34.00;;;14.65;;
42876;SDS011;42341;40.498;72.818;2023-02-01T00:43:31;38.28;;;15.82;;
42876;SDS011;42341;40.498;72.818;2023-02-01T00:45:58;35.17;;;15.70;;
42876;SDS011;42341;40.498;72.818;2023-02-01T00:48:24;41.47;;;16.88;;
42876;SDS011;42341;40.498;72.818;2023-02-01T00:50:50;40.17;;;18.50;;
42876;SDS011;42341;40.498;72.818;2023-02-01T00:53:17;39.25;;;18.13;;
42876;SDS011;42341;40.498;72.818;2023-02-01T00:55:46;41.50;;;17.15;;
42876;SDS011;42341;40.498;72.818;2023-02-01T00:58:13;36.33;;;14.82;;
42876;SDS011;42341;40.498;72.818;2023-02-01T01:00:39;26.40;;;13.80;;
42876;SDS011;42341;40.498;72.818;2023-02-01T01:03:05;30.48;;;14.27;;
42876;SDS011;42341;40.498;72.818;2023-02-01T01:05:49;34.63;;;16.58;;
42876;SDS011;42341;40.498;72.818;2023-02-01T01:08:15;43.63;;;19.73;;
42876;SDS011;42341;40.498;72.818;2023-02-01T01:10:42;38.63;;;17.65;;
42876;SDS011;42341;40.498;72.818;2023-02-01T01:13:08;41.40;;;18.30;;
42876;SDS011;42341;40.498;72.818;2023-02-01T01:15:39;35.85;;;17.85;;
42876;SDS011;42341;40.498;72.818;2023-02-01T01:18:05;57.25;;;20.88;;
42876;SDS011;42341;40.498;72.818;2023-02-01T01:20:36;46.88;;;22.80;;
42876;SDS011;42341;40.498;72.818;2023-02-01T01:23:03;45.50;;;20.77;;
42876;SDS011;42341;40.498;72.818;2023-02-01T01:25:30;39.05;;;17.10;;
42876;SDS011;42341;40.498;72.818;2023-02-01T01:27:56;83.03;;;40.67;;
42876;SDS011;42341;40.498;72.818;2023-02-01T01:30:23;52.85;;;28.70;;
42876;SDS011;42341;40.498;72.818;2023-02-01T01:32:49;40.13;;;21.00;;
42876;SDS011;42341;40.498;72.818;2023-02-01T01:35:16;48.03;;;22.50;;
42876;SDS011;42341;40.498;72.818;2023-02-01T01:37:42;43.20;;;19.85;;
42876;SDS011;42341;40.498;72.818;2023-02-01T01:40:08;38.55;;;18.70;;
42876;SDS011;42341;40.498;72.818;2023-02-01T01:42:37;46.45;;;21.63;;
42876;SDS011;42341;40.498;72.818;2023-02-01T01:47:35;43.13;;;22.52;;
42876;SDS011;42341;40.498;72.818;2023-02-01T01:50:07;37.35;;;20.88;;
42876;SDS011;42341;40.498;72.818;2023-02-01T01:52:35;36.88;;;19.92;;
42876;SDS011;42341;40.498;72.818;2023-02-01T01:55:03;38.95;;;20.08;;
42876;SDS011;42341;40.498;72.818;2023-02-01T01:57:31;36.38;;;18.27;;
42876;SDS011;42341;40.498;72.818;2023-02-01T02:02:45;41.10;;;18.42;;
42876;SDS011;42341;40.498;72.818;2023-02-01T02:05:12;47.28;;;22.63;;
42876;SDS011;42341;40.498;72.818;2023-02-01T02:07:40;42.22;;;21.17;;
42876;SDS011;42341;40.498;72.818;2023-02-01T02:10:11;56.60;;;20.83;;
42876;SDS011;42341;40.498;72.818;2023-02-01T02:12:38;75.68;;;32.63;;
42876;SDS011;42341;40.498;72.818;2023-02-01T02:15:06;114.63;;;47.92;;
42876;SDS011;42341;40.498;72.818;2023-02-01T02:17:52;58.25;;;25.80;;
42876;SDS011;42341;40.498;72.818;2023-02-01T02:24:06;47.03;;;19.58;;
42876;SDS011;42341;40.498;72.818;2023-02-01T02:37:56;58.85;;;22.45;;
42876;SDS011;42341;40.498;72.818;2023-02-01T02:40:39;55.85;;;23.48;;
42876;SDS011;42341;40.498;72.818;2023-02-01T02:43:18;48.70;;;22.10;;
42876;SDS011;42341;40.498;72.818;2023-02-01T02:46:25;63.88;;;23.25;;
42876;SDS011;42341;40.498;72.818;2023-02-01T02:52:48;88.72;;;38.60;;
42876;SDS011;42341;40.498;72.818;2023-02-01T02:55:40;143.02;;;60.58;;
42876;SDS011;42341;40.498;72.818;2023-02-01T02:58:07;80.97;;;38.10;;
42876;SDS011;42341;40.498;72.818;2023-02-01T03:00:54;82.10;;;42.28;;
42876;SDS011;42341;40.498;72.818;2023-02-01T03:03:39;54.35;;;29.10;;
42876;SDS011;42341;40.498;72.818;2023-02-01T03:06:24;52.10;;;22.73;;
42876;SDS011;42341;40.498;72.818;2023-02-01T03:08:50;46.08;;;22.70;;
42876;SDS011;42341;40.498;72.818;2023-02-01T03:11:19;48.05;;;21.73;;
42876;SDS011;42341;40.498;72.818;2023-02-01T03:16:28;79.72;;;33.90;;
42876;SDS011;42341;40.498;72.818;2023-02-01T03:19:29;69.25;;;30.27;;
42876;SDS011;42341;40.498;72.818;2023-02-01T03:22:04;72.50;;;30.23;;
42876;SDS011;42341;40.498;72.818;2023-02-01T03:24:34;62.00;;;27.65;;
42876;SDS011;42341;40.498;72.818;2023-02-01T03:32:35;43.10;;;21.42;;
42876;SDS011;42341;40.498;72.818;2023-02-01T03:35:25;44.08;;;20.98;;
42876;SDS011;42341;40.498;72.818;2023-02-01T03:41:17;33.30;;;13.48;;
42876;SDS011;42341;40.498;72.818;2023-02-01T03:46:57;31.38;;;15.48;;
42876;SDS011;42341;40.498;72.818;2023-02-01T03:49:43;39.72;;;15.68;;
42876;SDS011;42341;40.498;72.818;2023-02-01T03:52:25;52.90;;;18.80;;
42876;SDS011;42341;40.498;72.818;2023-02-01T03:54:56;36.92;;;14.75;;
42876;SDS011;42341;40.498;72.818;2023-02-01T03:57:24;29.35;;;14.52;;
42876;SDS011;42341;40.498;72.818;2023-02-01T03:59:54;35.13;;;16.58;;
42876;SDS011;42341;40.498;72.818;2023-02-01T04:02:33;36.70;;;18.05;;
42876;SDS011;42341;40.498;72.818;2023-02-01T04:04:59;51.97;;;24.83;;
42876;SDS011;42341;40.498;72.818;2023-02-01T04:07:25;48.17;;;22.45;;
42876;SDS011;42341;40.498;72.818;2023-02-01T04:09:51;55.67;;;26.33;;
42876;SDS011;42341;40.498;72.818;2023-02-01T04:12:17;64.40;;;31.40;;
42876;SDS011;42341;40.498;72.818;2023-02-01T04:14:43;66.55;;;31.48;;
42876;SDS011;42341;40.498;72.818;2023-02-01T04:17:09;59.55;;;28.23;;
42876;SDS011;42341;40.498;72.818;2023-02-01T04:19:35;65.57;;;27.25;;
42876;SDS011;42341;40.498;72.818;2023-02-01T04:22:01;56.63;;;26.40;;
42876;SDS011;42341;40.498;72.818;2023-02-01T04:24:27;55.53;;;25.02;;
42876;SDS011;42341;40.498;72.818;2023-02-01T04:26:52;52.25;;;24.02;;
42876;SDS011;42341;40.498;72.818;2023-02-01T04:29:18;77.53;;;34.15;;
42876;SDS011;42341;40.498;72.818;2023-02-01T04:31:44;100.78;;;45.50;;
42876;SDS011;42341;40.498;72.818;2023-02-01T04:34:11;80.22;;;37.38;;
42876;SDS011;42341;40.498;72.818;2023-02-01T04:36:37;84.05;;;34.00;;
42876;SDS011;42341;40.498;72.818;2023-02-01T04:39:03;75.85;;;30.83;;
42876;SDS011;42341;40.498;72.818;2023-02-01T04:41:29;56.47;;;26.48;;
42876;SDS011;42341;40.498;72.818;2023-02-01T04:43:55;51.28;;;22.73;;
42876;SDS011;42341;40.498;72.818;2023-02-01T04:46:21;38.47;;;17.60;;
42876;SDS011;42341;40.498;72.818;2023-02-01T04:48:47;44.58;;;20.25;;
42876;SDS011;42341;40.498;72.818;2023-02-01T04:51:12;52.55;;;22.92;;
42876;SDS011;42341;40.498;72.818;2023-02-01T04:53:41;54.15;;;20.50;;
42876;SDS011;42341;40.498;72.818;2023-02-01T04:56:07;36.83;;;16.80;;
42876;SDS011;42341;40.498;72.818;2023-02-01T04:58:33;44.53;;;20.40;;
42876;SDS011;42341;40.498;72.818;2023-02-01T05:00:59;40.08;;;20.08;;
42876;SDS011;42341;40.498;72.818;2023-02-01T05:03:29;40.05;;;17.85;;
42876;SDS011;42341;40.498;72.818;2023-02-01T05:05:57;41.13;;;20.83;;
42876;SDS011;42341;40.498;72.818;2023-02-01T05:08:22;37.97;;;17.52;;
42876;SDS011;42341;40.498;72.818;2023-02-01T05:10:50;31.35;;;16.88;;
42876;SDS011;42341;40.498;72.818;2023-02-01T05:13:16;33.78;;;17.05;;
42876;SDS011;42341;40.498;72.818;2023-02-01T05:16:00;39.55;;;19.80;;
42876;SDS011;42341;40.498;72.818;2023-02-01T05:18:26;48.33;;;21.80;;
42876;SDS011;42341;40.498;72.818;2023-02-01T05:20:52;42.72;;;19.70;;
42876;SDS011;42341;40.498;72.818;2023-02-01T05:23:18;42.70;;;18.90;;
42876;SDS011;42341;40.498;72.818;2023-02-01T05:25:44;47.97;;;19.65;;
42876;SDS011;42341;40.498;72.818;2023-02-01T05:28:09;29.83;;;15.02;;
42876;SDS011;42341;40.498;72.818;2023-02-01T05:30:35;31.92;;;16.33;;
42876;SDS011;42341;40.498;72.818;2023-02-01T05:33:02;35.33;;;18.30;;
42876;SDS011;42341;40.498;72.818;2023-02-01T05:35:28;44.42;;;19.50;;
42876;SDS011;42341;40.498;72.818;2023-02-01T05:37:55;44.50;;;23.02;;
42876;SDS011;42341;40.498;72.818;2023-02-01T05:40:21;118.85;;;66.68;;
42876;SDS011;42341;40.498;72.818;2023-02-01T05:42:47;162.93;;;89.10;;
42876;SDS011;42341;40.498;72.818;2023-02-01T05:45:13;177.98;;;103.07;;
42876;SDS011;42341;40.498;72.818;2023-02-01T05:47:39;199.00;;;102.88;;
42876;SDS011;42341;40.498;72.818;2023-02-01T05:50:05;193.07;;;105.65;;
42876;SDS011;42341;40.498;72.818;2023-02-01T05:52:32;197.43;;;105.05;;
42876;SDS011;42341;40.498;72.818;2023-02-01T05:54:58;181.73;;;97.78;;
42876;SDS011;42341;40.498;72.818;2023-02-01T05:57:24;169.43;;;91.72;;
42876;SDS011;42341;40.498;72.818;2023-02-01T05:59:50;177.15;;;96.65;;
42876;SDS011;42341;40.498;72.818;2023-02-01T06:02:16;154.18;;;82.93;;
42876;SDS011;42341;40.498;72.818;2023-02-01T06:04:42;153.63;;;82.57;;
42876;SDS011;42341;40.498;72.818;2023-02-01T06:07:08;161.82;;;84.35;;
42876;SDS011;42341;40.498;72.818;2023-02-01T06:09:35;156.20;;;87.70;;
42876;SDS011;42341;40.498;72.818;2023-02-01T06:12:02;152.20;;;77.57;;
42876;SDS011;42341;40.498;72.818;2023-02-01T06:14:29;131.82;;;71.20;;
42876;SDS011;42341;40.498;72.818;2023-02-01T06:16:55;136.27;;;71.47;;
42876;SDS011;42341;40.498;72.818;2023-02-01T06:19:22;127.30;;;68.93;;
42876;SDS011;42341;40.498;72.818;2023-02-01T06:21:48;124.50;;;68.05;;
42876;SDS011;42341;40.498;72.818;2023-02-01T06:24:15;126.85;;;68.20;;
42876;SDS011;42341;40.498;72.818;2023-02-01T06:26:44;122.50;;;67.03;;
42876;SDS011;42341;40.498;72.818;2023-02-01T06:29:10;137.23;;;68.40;;
42876;SDS011;42341;40.498;72.818;2023-02-01T06:31:36;127.10;;;68.65;;
42876;SDS011;42341;40.498;72.818;2023-02-01T06:34:02;127.63;;;67.05;;
42876;SDS011;42341;40.498;72.818;2023-02-01T06:36:28;113.50;;;60.70;;
42876;SDS011;42341;40.498;72.818;2023-02-01T06:38:55;114.85;;;61.25;;
42876;SDS011;42341;40.498;72.818;2023-02-01T06:41:22;111.15;;;61.25;;
42876;SDS011;42341;40.498;72.818;2023-02-01T06:43:48;124.78;;;63.25;;
42876;SDS011;42341;40.498;72.818;2023-02-01T06:46:14;117.38;;;61.72;;
42876;SDS011;42341;40.498;72.818;2023-02-01T06:48:40;95.57;;;53.33;;
42876;SDS011;42341;40.498;72.818;2023-02-01T06:51:10;74.65;;;40.05;;
42876;SDS011;42341;40.498;72.818;2023-02-01T06:53:50;73.63;;;39.50;;
42876;SDS011;42341;40.498;72.818;2023-02-01T06:56:16;74.07;;;39.42;;
42876;SDS011;42341;40.498;72.818;2023-02-01T06:58:43;77.80;;;40.17;;
42876;SDS011;42341;40.498;72.818;2023-02-01T07:01:10;73.05;;;39.33;;
42876;SDS011;42341;40.498;72.818;2023-02-01T07:03:37;95.97;;;44.35;;
42876;SDS011;42341;40.498;72.818;2023-02-01T07:06:03;86.20;;;44.95;;
42876;SDS011;42341;40.498;72.818;2023-02-01T07:08:30;94.03;;;43.55;;
42876;SDS011;42341;40.498;72.818;2023-02-01T07:11:04;80.65;;;40.95;;
42876;SDS011;42341;40.498;72.818;2023-02-01T07:13:32;78.35;;;39.35;;
42876;SDS011;42341;40.498;72.818;2023-02-01T07:15:59;75.57;;;38.38;;
42876;SDS011;42341;40.498;72.818;2023-02-01T07:18:29;101.78;;;47.08;;
42876;SDS011;42341;40.498;72.818;2023-02-01T07:20:55;152.25;;;74.97;;
42876;SDS011;42341;40.498;72.818;2023-02-01T07:23:22;159.00;;;78.43;;
42876;SDS011;42341;40.498;72.818;2023-02-01T07:25:48;140.13;;;70.82;;
42876;SDS011;42341;40.498;72.818;2023-02-01T07:28:18;140.48;;;71.25;;
42876;SDS011;42341;40.498;72.818;2023-02-01T07:30:44;147.30;;;71.38;;
42876;SDS011;42341;40.498;72.818;2023-02-01T07:33:16;140.77;;;70.53;;
42876;SDS011;42341;40.498;72.818;2023-02-01T07:35:46;126.65;;;61.17;;
42876;SDS011;42341;40.498;72.818;2023-02-01T07:38:13;109.40;;;57.95;;
42876;SDS011;42341;40.498;72.818;2023-02-01T07:40:39;108.43;;;54.38;;
42876;SDS011;42341;40.498;72.818;2023-02-01T07:43:06;120.88;;;62.72;;
42876;SDS011;42341;40.498;72.818;2023-02-01T07:45:33;157.85;;;71.78;;
42876;SDS011;42341;40.498;72.818;2023-02-01T07:48:00;291.00;;;121.97;;
42876;SDS011;42341;40.498;72.818;2023-02-01T07:50:26;266.08;;;109.47;;
42876;SDS011;42341;40.498;72.818;2023-02-01T07:52:52;132.35;;;65.47;;
42876;SDS011;42341;40.498;72.818;2023-02-01T07:55:19;152.07;;;70.70;;
42876;SDS011;42341;40.498;72.818;2023-02-01T07:57:45;141.90;;;69.18;;
42876;SDS011;42341;40.498;72.818;2023-02-01T08:00:12;157.50;;;68.82;;
42876;SDS011;42341;40.498;72.818;2023-02-01T08:03:00;117.75;;;60.15;;
42876;SDS011;42341;40.498;72.818;2023-02-01T08:05:26;124.97;;;60.97;;
42876;SDS011;42341;40.498;72.818;2023-02-01T08:07:52;137.38;;;68.00;;
42876;SDS011;42341;40.498;72.818;2023-02-01T08:10:18;150.30;;;71.63;;
42876;SDS011;42341;40.498;72.818;2023-02-01T08:12:45;114.43;;;57.30;;
42876;SDS011;42341;40.498;72.818;2023-02-01T08:15:16;131.73;;;65.68;;
42876;SDS011;42341;40.498;72.818;2023-02-01T08:17:46;152.25;;;68.50;;
42876;SDS011;42341;40.498;72.818;2023-02-01T08:20:13;102.00;;;49.45;;
42876;SDS011;42341;40.498;72.818;2023-02-01T08:22:39;108.50;;;52.40;;
42876;SDS011;42341;40.498;72.818;2023-02-01T08:25:05;138.23;;;64.05;;
42876;SDS011;42341;40.498;72.818;2023-02-01T08:27:35;105.53;;;50.90;;
42876;SDS011;42341;40.498;72.818;2023-02-01T08:30:01;159.85;;;79.20;;
42876;SDS011;42341;40.498;72.818;2023-02-01T08:32:28;95.47;;;46.58;;
42876;SDS011;42341;40.498;72.818;2023-02-01T08:34:54;114.80;;;56.00;;
42876;SDS011;42341;40.498;72.818;2023-02-01T08:37:20;117.82;;;58.80;;
42876;SDS011;42341;40.498;72.818;2023-02-01T08:39:46;129.32;;;60.33;;
42876;SDS011;42341;40.498;72.818;2023-02-01T08:42:15;110.10;;;53.28;;
42876;SDS011;42341;40.498;72.818;2023-02-01T08:44:59;85.57;;;39.42;;
42876;SDS011;42341;40.498;72.818;2023-02-01T08:47:25;63.58;;;31.90;;
42876;SDS011;42341;40.498;72.818;2023-02-01T08:49:51;61.22;;;31.30;;
42876;SDS011;42341;40.498;72.818;2023-02-01T08:52:18;96.47;;;49.65;;
42876;SDS011;42341;40.498;72.818;2023-02-01T08:54:44;67.65;;;32.50;;
42876;SDS011;42341;40.498;72.818;2023-02-01T08:57:10;65.03;;;33.45;;
42876;SDS011;42341;40.498;72.818;2023-02-01T08:59:36;60.38;;;30.45;;
42876;SDS011;42341;40.498;72.818;2023-02-01T09:02:02;47.22;;;24.25;;
42876;SDS011;42341;40.498;72.818;2023-02-01T09:04:28;37.35;;;19.88;;
42876;SDS011;42341;40.498;72.818;2023-02-01T09:06:54;40.83;;;20.73;;
42876;SDS011;42341;40.498;72.818;2023-02-01T09:09:21;27.77;;;16.00;;
42876;SDS011;42341;40.498;72.818;2023-02-01T09:11:48;34.85;;;18.83;;
42876;SDS011;42341;40.498;72.818;2023-02-01T09:14:15;41.95;;;21.33;;
42876;SDS011;42341;40.498;72.818;2023-02-01T09:16:41;47.17;;;24.88;;
42876;SDS011;42341;40.498;72.818;2023-02-01T09:19:07;62.72;;;31.75;;
42876;SDS011;42341;40.498;72.818;2023-02-01T09:21:34;63.90;;;33.47;;
42876;SDS011;42341;40.498;72.818;2023-02-01T09:24:00;70.03;;;37.47;;
42876;SDS011;42341;40.498;72.818;2023-02-01T09:26:26;68.45;;;37.53;;
42876;SDS011;42341;40.498;72.818;2023-02-01T09:28:52;68.10;;;35.88;;
42876;SDS011;42341;40.498;72.818;2023-02-01T09:31:18;64.13;;;31.60;;
42876;SDS011;42341;40.498;72.818;2023-02-01T09:33:44;58.38;;;30.90;;
42876;SDS011;42341;40.498;72.818;2023-02-01T09:36:11;72.93;;;37.72;;
42876;SDS011;42341;40.498;72.818;2023-02-01T09:38:37;74.03;;;37.53;;
42876;SDS011;42341;40.498;72.818;2023-02-01T09:41:07;69.00;;;36.20;;
42876;SDS011;42341;40.498;72.818;2023-02-01T09:46:23;63.40;;;31.17;;
42876;SDS011;42341;40.498;72.818;2023-02-01T09:48:55;57.20;;;29.27;;
42876;SDS011;42341;40.498;72.818;2023-02-01T09:51:30;57.03;;;29.63;;
42876;SDS011;42341;40.498;72.818;2023-02-01T09:54:18;72.22;;;37.35;;
42876;SDS011;42341;40.498;72.818;2023-02-01T10:01:50;56.80;;;28.40;;
42876;SDS011;42341;40.498;72.818;2023-02-01T10:04:16;57.30;;;29.27;;
42876;SDS011;42341;40.498;72.818;2023-02-01T10:26:00;96.43;;;46.58;;
42876;SDS011;42341;40.498;72.818;2023-02-01T10:28:42;90.50;;;41.38;;
42876;SDS011;42341;40.498;72.818;2023-02-01T10:31:13;71.55;;;32.08;;
42876;SDS011;42341;40.498;72.818;2023-02-01T10:33:42;78.00;;;33.10;;
42876;SDS011;42341;40.498;72.818;2023-02-01T10:36:16;87.82;;;40.80;;
42876;SDS011;42341;40.498;72.818;2023-02-01T10:38:55;73.32;;;34.63;;
42876;SDS011;42341;40.498;72.818;2023-02-01T10:41:23;68.85;;;32.10;;
42876;SDS011;42341;40.498;72.818;2023-02-01T10:43:56;67.95;;;37.22;;
42876;SDS011;42341;40.498;72.818;2023-02-01T10:46:23;79.90;;;38.38;;
42876;SDS011;42341;40.498;72.818;2023-02-01T10:48:50;75.97;;;39.42;;
42876;SDS011;42341;40.498;72.818;2023-02-01T10:51:21;77.30;;;39.60;;
42876;SDS011;42341;40.498;72.818;2023-02-01T10:54:00;81.60;;;40.00;;
42876;SDS011;42341;40.498;72.818;2023-02-01T10:56:37;153.63;;;74.68;;
42876;SDS011;42341;40.498;72.818;2023-02-01T10:59:04;190.33;;;91.83;;
42876;SDS011;42341;40.498;72.818;2023-02-01T11:01:36;189.32;;;93.63;;
42876;SDS011;42341;40.498;72.818;2023-02-01T11:04:05;195.02;;;100.18;;
42876;SDS011;42341;40.498;72.818;2023-02-01T11:06:36;175.50;;;85.88;;
42876;SDS011;42341;40.498;72.818;2023-02-01T11:14:20;161.23;;;82.07;;
42876;SDS011;42341;40.498;72.818;2023-02-01T11:16:50;169.20;;;81.70;;
42876;SDS011;42341;40.498;72.818;2023-02-01T11:19:19;161.25;;;82.00;;
42876;SDS011;42341;40.498;72.818;2023-02-01T11:21:48;169.05;;;83.30;;
42876;SDS011;42341;40.498;72.818;2023-02-01T11:24:40;177.98;;;86.65;;
42876;SDS011;42341;40.498;72.818;2023-02-01T11:27:12;143.13;;;72.10;;
42876;SDS011;42341;40.498;72.818;2023-02-01T11:29:42;153.27;;;69.35;;
42876;SDS011;42341;40.498;72.818;2023-02-01T11:32:11;173.88;;;84.72;;
42876;SDS011;42341;40.498;72.818;2023-02-01T11:34:47;191.63;;;96.60;;
42876;SDS011;42341;40.498;72.818;2023-02-01T11:37:21;201.18;;;95.72;;
42876;SDS011;42341;40.498;72.818;2023-02-01T11:40:03;199.65;;;98.47;;
42876;SDS011;42341;40.498;72.818;2023-02-01T11:42:55;189.30;;;97.55;;
42876;SDS011;42341;40.498;72.818;2023-02-01T11:45:27;190.10;;;92.80;;
42876;SDS011;42341;40.498;72.818;2023-02-01T11:47:55;192.50;;;96.10;;
42876;SDS011;42341;40.498;72.818;2023-02-01T11:53:30;204.82;;;101.38;;
42876;SDS011;42341;40.498;72.818;2023-02-01T11:58:56;251.13;;;128.82;;
42876;SDS011;42341;40.498;72.818;2023-02-01T12:02:32;230.48;;;118.13;;
42876;SDS011;42341;40.498;72.818;2023-02-01T12:05:04;210.45;;;110.18;;
42876;SDS011;42341;40.498;72.818;2023-02-01T12:10:26;216.00;;;111.60;;
42876;SDS011;42341;40.498;72.818;2023-02-01T12:13:00;198.68;;;105.22;;
42876;SDS011;42341;40.498;72.818;2023-02-01T12:29:37;230.82;;;122.18;;
42876;SDS011;42341;40.498;72.818;2023-02-01T12:35:21;286.20;;;145.43;;
42876;SDS011;42341;40.498;72.818;2023-02-01T12:38:16;273.60;;;135.88;;
42876;SDS011;42341;40.498;72.818;2023-02-01T12:41:23;284.45;;;144.13;;
42876;SDS011;42341;40.498;72.818;2023-02-01T12:46:51;305.45;;;153.75;;
42876;SDS011;42341;40.498;72.818;2023-02-01T12:49:41;529.15;;;263.65;;
42876;SDS011;42341;40.498;72.818;2023-02-01T12:52:38;297.05;;;154.55;;
42876;SDS011;42341;40.498;72.818;2023-02-01T13:01:15;315.88;;;163.48;;
42876;SDS011;42341;40.498;72.818;2023-02-01T13:06:35;288.08;;;145.82;;
42876;SDS011;42341;40.498;72.818;2023-02-01T13:09:29;263.13;;;133.57;;
42876;SDS011;42341;40.498;72.818;2023-02-01T13:12:20;316.27;;;160.07;;
42876;SDS011;42341;40.498;72.818;2023-02-01T13:14:53;273.35;;;138.70;;
42876;SDS011;42341;40.498;72.818;2023-02-01T13:17:26;279.13;;;142.95;;
42876;SDS011;42341;40.498;72.818;2023-02-01T13:19:57;312.88;;;166.52;;
42876;SDS011;42341;40.498;72.818;2023-02-01T13:22:35;333.70;;;177.90;;
42876;SDS011;42341;40.498;72.818;2023-02-01T13:25:17;317.95;;;171.57;;
42876;SDS011;42341;40.498;72.818;2023-02-01T13:28:06;330.38;;;179.00;;
42876;SDS011;42341;40.498;72.818;2023-02-01T13:33:31;325.05;;;173.52;;
42876;SDS011;42341;40.498;72.818;2023-02-01T13:39:27;327.48;;;176.57;;
42876;SDS011;42341;40.498;72.818;2023-02-01T13:42:05;341.92;;;177.77;;
42876;SDS011;42341;40.498;72.818;2023-02-01T13:44:42;353.05;;;184.18;;
42876;SDS011;42341;40.498;72.818;2023-02-01T13:47:40;362.20;;;189.68;;
42876;SDS011;42341;40.498;72.818;2023-02-01T13:52:43;402.42;;;217.20;;
42876;SDS011;42341;40.498;72.818;2023-02-01T13:57:44;442.77;;;240.25;;
42876;SDS011;42341;40.498;72.818;2023-02-01T14:14:00;405.65;;;226.23;;
42876;SDS011;42341;40.498;72.818;2023-02-01T14:23:57;431.00;;;238.30;;
42876;SDS011;42341;40.498;72.818;2023-02-01T14:26:42;422.23;;;232.68;;
42876;SDS011;42341;40.498;72.818;2023-02-01T14:34:38;458.15;;;243.10;;
42876;SDS011;42341;40.498;72.818;2023-02-01T14:50:31;237.50;;;113.45;;
42876;SDS011;42341;40.498;72.818;2023-02-01T15:03:28;1462.90;;;577.08;;
42876;SDS011;42341;40.498;72.818;2023-02-01T15:05:56;517.55;;;200.68;;
42876;SDS011;42341;40.498;72.818;2023-02-01T15:08:27;182.95;;;88.57;;
42876;SDS011;42341;40.498;72.818;2023-02-01T15:13:26;157.07;;;76.40;;
42876;SDS011;42341;40.498;72.818;2023-02-01T15:16:00;161.93;;;76.68;;
42876;SDS011;42341;40.498;72.818;2023-02-01T15:18:28;172.32;;;88.63;;
42876;SDS011;42341;40.498;72.818;2023-02-01T15:21:00;174.80;;;82.95;;
42876;SDS011;42341;40.498;72.818;2023-02-01T15:23:27;174.10;;;87.15;;
42876;SDS011;42341;40.498;72.818;2023-02-01T15:25:54;452.67;;;199.02;;
42876;SDS011;42341;40.498;72.818;2023-02-01T15:28:20;192.02;;;94.93;;
42876;SDS011;42341;40.498;72.818;2023-02-01T15:33:30;169.27;;;79.93;;
42876;SDS011;42341;40.498;72.818;2023-02-01T15:38:42;186.77;;;86.55;;
42876;SDS011;42341;40.498;72.818;2023-02-01T15:41:13;181.55;;;88.57;;
42876;SDS011;42341;40.498;72.818;2023-02-01T15:46:22;166.25;;;77.88;;
42876;SDS011;42341;40.498;72.818;2023-02-01T15:48:56;136.27;;;68.57;;
42876;SDS011;42341;40.498;72.818;2023-02-01T15:51:23;129.60;;;64.20;;
42876;SDS011;42341;40.498;72.818;2023-02-01T15:56:44;193.45;;;81.13;;
42876;SDS011;42341;40.498;72.818;2023-02-01T15:59:17;138.93;;;64.05;;
42876;SDS011;42341;40.498;72.818;2023-02-01T16:01:46;119.38;;;57.35;;
42876;SDS011;42341;40.498;72.818;2023-02-01T16:04:17;119.93;;;57.28;;
42876;SDS011;42341;40.498;72.818;2023-02-01T16:06:52;136.82;;;64.30;;
42876;SDS011;42341;40.498;72.818;2023-02-01T16:09:24;193.95;;;87.75;;
42876;SDS011;42341;40.498;72.818;2023-02-01T16:12:01;166.18;;;76.50;;
42876;SDS011;42341;40.498;72.818;2023-02-01T16:14:28;170.13;;;71.95;;
42876;SDS011;42341;40.498;72.818;2023-02-01T16:16:56;193.55;;;78.68;;
42876;SDS011;42341;40.498;72.818;2023-02-01T16:19:23;184.80;;;80.70;;
42876;SDS011;42341;40.498;72.818;2023-02-01T16:21:53;195.63;;;91.32;;
42876;SDS011;42341;40.498;72.818;2023-02-01T16:24:20;192.70;;;85.97;;
42876;SDS011;42341;40.498;72.818;2023-02-01T16:26:52;175.10;;;80.40;;
42876;SDS011;42341;40.498;72.818;2023-02-01T16:29:18;144.15;;;72.88;;
42876;SDS011;42341;40.498;72.818;2023-02-01T16:31:46;157.20;;;83.47;;
42876;SDS011;42341;40.498;72.818;2023-02-01T16:34:15;248.10;;;119.72;;
42876;SDS011;42341;40.498;72.818;2023-02-01T16:36:42;265.67;;;126.80;;
42876;SDS011;42341;40.498;72.818;2023-02-01T16:39:11;273.83;;;143.25;;
42876;SDS011;42341;40.498;72.818;2023-02-01T16:41:39;269.00;;;125.78;;
42876;SDS011;42341;40.498;72.818;2023-02-01T16:44:05;297.60;;;147.15;;
42876;SDS011;42341;40.498;72.818;2023-02-01T16:46:32;288.35;;;144.63;;
42876;SDS011;42341;40.498;72.818;2023-02-01T16:49:01;247.75;;;122.75;;
42876;SDS011;42341;40.498;72.818;2023-02-01T16:51:30;284.38;;;143.82;;
42876;SDS011;42341;40.498;72.818;2023-02-01T16:53:58;328.77;;;160.07;;
42876;SDS011;42341;40.498;72.818;2023-02-01T16:56:29;338.80;;;163.10;;
42876;SDS011;42341;40.498;72.818;2023-02-01T16:58:57;314.30;;;150.80;;
42876;SDS011;42341;40.498;72.818;2023-02-01T17:01:23;298.58;;;147.45;;
42876;SDS011;42341;40.498;72.818;2023-02-01T17:03:50;315.55;;;156.27;;
42876;SDS011;42341;40.498;72.818;2023-02-01T17:06:17;338.27;;;169.63;;
42876;SDS011;42341;40.498;72.818;2023-02-01T17:08:46;315.02;;;156.18;;
42876;SDS011;42341;40.498;72.818;2023-02-01T17:11:26;327.55;;;158.50;;
42876;SDS011;42341;40.498;72.818;2023-02-01T17:13:55;278.35;;;131.60;;
42876;SDS011;42341;40.498;72.818;2023-02-01T17:16:29;326.45;;;147.60;;
42876;SDS011;42341;40.498;72.818;2023-02-01T17:18:57;337.92;;;161.45;;
42876;SDS011;42341;40.498;72.818;2023-02-01T17:21:30;316.30;;;149.90;;
42876;SDS011;42341;40.498;72.818;2023-02-01T17:24:09;337.05;;;161.52;;
42876;SDS011;42341;40.498;72.818;2023-02-01T17:26:39;267.88;;;132.40;;